sensor_id;sensor_type;location;lat;lon;timestamp;temperature;humidity
15184;DHT22;7693;49.266;7.104;2023-02-23T06:00:32;8.50;99.90
15184;DHT22;7693;49.266;7.104;2023-02-23T06:02:58;8.50;99.90
15184;DHT22;7693;49.266;7.104;2023-02-23T06:05:23;8.50;99.90
15184;DHT22;7693;49.266;7.104;2023-02-23T06:07:49;8.50;99.90
15184;DHT22;7693;49.266;7.104;2023-02-23T06:10:14;8.50;99.90
15184;DHT22;7693;49.266;7.104;2023-02-23T06:12:40;8.50;99.90
15184;DHT22;7693;49.266;7.104;2023-02-23T06:15:06;8.60;99.90
15184;DHT22;7693;49.266;7.104;2023-02-23T06:17:32;8.60;99.90
15184;DHT22;7693;49.266;7.104;2023-02-23T06:19:58;8.60;99.90
15184;DHT22;7693;49.266;7.104;2023-02-23T06:22:26;8.70;99.90
15184;DHT22;7693;49.266;7.104;2023-02-23T06:24:52;8.70;99.90
15184;DHT22;7693;49.266;7.104;2023-02-23T06:27:17;8.70;99.90
15184;DHT22;7693;49.266;7.104;2023-02-23T06:29:43;8.70;99.90
15184;DHT22;7693;49.266;7.104;2023-02-23T06:32:08;8.70;99.90
15184;DHT22;7693;49.266;7.104;2023-02-23T06:34:34;8.70;99.90
15184;DHT22;7693;49.266;7.104;2023-02-23T06:36:59;8.80;99.90
15184;DHT22;7693;49.266;7.104;2023-02-23T06:39:25;8.80;99.90
15184;DHT22;7693;49.266;7.104;2023-02-23T06:41:50;8.80;99.90
15184;DHT22;7693;49.266;7.104;2023-02-23T06:44:16;8.80;99.90
15184;DHT22;7693;49.266;7.104;2023-02-23T06:46:42;8.80;99.90
15184;DHT22;7693;49.266;7.104;2023-02-23T06:49:10;8.80;99.90
15184;DHT22;7693;49.266;7.104;2023-02-23T06:51:36;8.80;99.90
15184;DHT22;7693;49.266;7.104;2023-02-23T06:54:01;8.80;99.90
15184;DHT22;7693;49.266;7.104;2023-02-23T06:56:27;8.80;99.90
15184;DHT22;7693;49.266;7.104;2023-02-23T06:58:53;8.80;99.90
15184;DHT22;7693;49.266;7.104;2023-02-23T07:01:18;8.80;99.90
15184;DHT22;7693;49.266;7.104;2023-02-23T07:03:45;8.80;99.90
15184;DHT22;7693;49.266;7.104;2023-02-23T07:06:11;8.80;99.90
15184;DHT22;7693;49.266;7.104;2023-02-23T07:08:36;8.90;99.90
15184;DHT22;7693;49.266;7.104;2023-02-23T07:11:11;8.90;99.90
15184;DHT22;7693;49.266;7.104;2023-02-23T07:13:38;8.90;99.90
15184;DHT22;7693;49.266;7.104;2023-02-23T07:16:04;8.90;99.90
15184;DHT22;7693;49.266;7.104;2023-02-23T07:18:30;8.90;99.90
15184;DHT22;7693;49.266;7.104;2023-02-23T07:20:56;8.90;99.90
15184;DHT22;7693;49.266;7.104;2023-02-23T07:23:21;8.90;99.90
15184;DHT22;7693;49.266;7.104;2023-02-23T07:25:51;8.90;99.90
15184;DHT22;7693;49.266;7.104;2023-02-23T07:28:17;9.00;99.90
15184;DHT22;7693;49.266;7.104;2023-02-23T07:30:43;9.00;99.90
15184;DHT22;7693;49.266;7.104;2023-02-23T07:33:09;9.00;99.90
15184;DHT22;7693;49.266;7.104;2023-02-23T07:35:34;9.00;99.90
15184;DHT22;7693;49.266;7.104;2023-02-23T07:38:00;9.00;99.90
15184;DHT22;7693;49.266;7.104;2023-02-23T07:40:25;9.00;99.90
15184;DHT22;7693;49.266;7.104;2023-02-23T07:42:51;9.10;99.90
15184;DHT22;7693;49.266;7.104;2023-02-23T07:45:17;9.10;99.90
15184;DHT22;7693;49.266;7.104;2023-02-23T07:47:43;9.10;99.90
15184;DHT22;7693;49.266;7.104;2023-02-23T07:50:10;9.10;99.90
15184;DHT22;7693;49.266;7.104;2023-02-23T07:52:40;9.10;99.90
15184;DHT22;7693;49.266;7.104;2023-02-23T07:55:06;9.10;99.90
15184;DHT22;7693;49.266;7.104;2023-02-23T07:57:32;9.10;99.90
15184;DHT22;7693;49.266;7.104;2023-02-23T07:59:58;9.10;99.90
15184;DHT22;7693;49.266;7.104;2023-02-23T08:02:24;9.20;99.90
15184;DHT22;7693;49.266;7.104;2023-02-23T08:04:50;9.20;99.90
15184;DHT22;7693;49.266;7.104;2023-02-23T08:07:18;9.20;99.90
15184;DHT22;7693;49.266;7.104;2023-02-23T08:09:44;9.20;99.90
15184;DHT22;7693;49.266;7.104;2023-02-23T08:12:10;9.20;99.90
15184;DHT22;7693;49.266;7.104;2023-02-23T08:14:35;9.20;99.90
15184;DHT22;7693;49.266;7.104;2023-02-23T08:17:01;9.30;99.90
15184;DHT22;7693;49.266;7.104;2023-02-23T08:19:27;9.30;99.90
15184;DHT22;7693;49.266;7.104;2023-02-23T08:21:52;9.30;99.90
15184;DHT22;7693;49.266;7.104;2023-02-23T08:24:18;9.40;99.90
15184;DHT22;7693;49.266;7.104;2023-02-23T08:26:44;9.40;99.90
15184;DHT22;7693;49.266;7.104;2023-02-23T08:29:10;9.40;99.90
15184;DHT22;7693;49.266;7.104;2023-02-23T08:31:35;9.40;99.90
15184;DHT22;7693;49.266;7.104;2023-02-23T08:34:01;9.40;99.90
15184;DHT22;7693;49.266;7.104;2023-02-23T08:36:27;9.50;99.90
15184;DHT22;7693;49.266;7.104;2023-02-23T08:38:52;9.50;99.90
15184;DHT22;7693;49.266;7.104;2023-02-23T08:41:19;9.60;99.90
15184;DHT22;7693;49.266;7.104;2023-02-23T08:43:45;9.60;99.90
15184;DHT22;7693;49.266;7.104;2023-02-23T08:46:11;9.60;99.90
15184;DHT22;7693;49.266;7.104;2023-02-23T08:48:36;9.60;99.90
15184;DHT22;7693;49.266;7.104;2023-02-23T08:51:05;9.60;99.90
15184;DHT22;7693;49.266;7.104;2023-02-23T08:53:31;9.60;99.90
15184;DHT22;7693;49.266;7.104;2023-02-23T08:55:58;9.60;99.90
15184;DHT22;7693;49.266;7.104;2023-02-23T08:58:25;9.60;99.90
15184;DHT22;7693;49.266;7.104;2023-02-23T09:00:51;9.70;99.90
15184;DHT22;7693;49.266;7.104;2023-02-23T09:03:17;9.70;99.90
15184;DHT22;7693;49.266;7.104;2023-02-23T09:05:44;9.70;99.90
15184;DHT22;7693;49.266;7.104;2023-02-23T09:08:11;9.80;99.90
15184;DHT22;7693;49.266;7.104;2023-02-23T09:10:37;9.80;99.90
15184;DHT22;7693;49.266;7.104;2023-02-23T09:13:02;9.80;99.90
15184;DHT22;7693;49.266;7.104;2023-02-23T09:15:28;9.80;99.90
15184;DHT22;7693;49.266;7.104;2023-02-23T09:17:53;9.80;99.90
15184;DHT22;7693;49.266;7.104;2023-02-23T09:20:19;9.80;99.90
15184;DHT22;7693;49.266;7.104;2023-02-23T09:22:45;9.80;99.90
15184;DHT22;7693;49.266;7.104;2023-02-23T09:25:18;9.90;99.90
15184;DHT22;7693;49.266;7.104;2023-02-23T09:27:53;9.90;99.90
15184;DHT22;7693;49.266;7.104;2023-02-23T09:30:20;9.90;99.90
15184;DHT22;7693;49.266;7.104;2023-02-23T09:32:47;9.90;99.90
15184;DHT22;7693;49.266;7.104;2023-02-23T09:35:14;10.00;99.90
15184;DHT22;7693;49.266;7.104;2023-02-23T09:37:54;10.10;99.90
15184;DHT22;7693;49.266;7.104;2023-02-23T09:40:28;10.20;99.90
15184;DHT22;7693;49.266;7.104;2023-02-23T09:48:36;10.30;99.90
15184;DHT22;7693;49.266;7.104;2023-02-23T09:51:05;10.30;99.90
15184;DHT22;7693;49.266;7.104;2023-02-23T09:53:44;10.30;99.90
15184;DHT22;7693;49.266;7.104;2023-02-23T09:58:57;10.30;99.90
15184;DHT22;7693;49.266;7.104;2023-02-23T10:06:45;10.50;99.90
15184;DHT22;7693;49.266;7.104;2023-02-23T10:12:17;10.60;99.90
15184;DHT22;7693;49.266;7.104;2023-02-23T10:15:26;10.60;99.90
15184;DHT22;7693;49.266;7.104;2023-02-23T10:20:42;10.80;99.90
15184;DHT22;7693;49.266;7.104;2023-02-23T10:23:15;10.80;99.90
15184;DHT22;7693;49.266;7.104;2023-02-23T10:25:47;10.80;99.90
15184;DHT22;7693;49.266;7.104;2023-02-23T10:28:20;10.80;99.90
15184;DHT22;7693;49.266;7.104;2023-02-23T10:30:48;10.80;99.90
15184;DHT22;7693;49.266;7.104;2023-02-23T10:35:44;10.80;99.90
15184;DHT22;7693;49.266;7.104;2023-02-23T10:38:17;10.80;99.90
15184;DHT22;7693;49.266;7.104;2023-02-23T10:40:47;10.80;99.90
15184;DHT22;7693;49.266;7.104;2023-02-23T10:43:14;10.80;99.90
15184;DHT22;7693;49.266;7.104;2023-02-23T10:45:51;10.80;99.90
15184;DHT22;7693;49.266;7.104;2023-02-23T10:48:25;10.80;99.90
15184;DHT22;7693;49.266;7.104;2023-02-23T10:50:54;10.80;99.90
15184;DHT22;7693;49.266;7.104;2023-02-23T10:53:26;10.80;99.90
15184;DHT22;7693;49.266;7.104;2023-02-23T10:56:10;10.80;99.90
15184;DHT22;7693;49.266;7.104;2023-02-23T10:58:43;10.80;99.90
15184;DHT22;7693;49.266;7.104;2023-02-23T11:01:12;10.80;99.90
15184;DHT22;7693;49.266;7.104;2023-02-23T11:03:41;10.90;99.90
15184;DHT22;7693;49.266;7.104;2023-02-23T11:06:32;10.90;99.90
15184;DHT22;7693;49.266;7.104;2023-02-23T11:09:21;11.00;99.90
15184;DHT22;7693;49.266;7.104;2023-02-23T11:14:23;11.10;99.90
15184;DHT22;7693;49.266;7.104;2023-02-23T11:16:49;11.10;99.90
15184;DHT22;7693;49.266;7.104;2023-02-23T11:21:52;11.20;99.90
15184;DHT22;7693;49.266;7.104;2023-02-23T11:24:28;11.20;99.90
15184;DHT22;7693;49.266;7.104;2023-02-23T11:26:56;11.20;99.90
15184;DHT22;7693;49.266;7.104;2023-02-23T11:31:55;11.20;99.90
15184;DHT22;7693;49.266;7.104;2023-02-23T11:34:31;11.20;99.90
15184;DHT22;7693;49.266;7.104;2023-02-23T11:37:04;11.20;99.90
15184;DHT22;7693;49.266;7.104;2023-02-23T13:46:39;11.60;99.90
15184;DHT22;7693;49.266;7.104;2023-02-23T13:49:25;11.60;99.90
15184;DHT22;7693;49.266;7.104;2023-02-23T13:51:59;11.60;99.90
15184;DHT22;7693;49.266;7.104;2023-02-23T13:54:34;11.70;99.90
15184;DHT22;7693;49.266;7.104;2023-02-23T13:57:11;11.80;99.90
15184;DHT22;7693;49.266;7.104;2023-02-23T13:59:41;11.80;99.90
15184;DHT22;7693;49.266;7.104;2023-02-23T14:02:34;11.80;99.90
15184;DHT22;7693;49.266;7.104;2023-02-23T14:05:03;11.90;99.90
15184;DHT22;7693;49.266;7.104;2023-02-23T14:07:31;11.90;99.90
15184;DHT22;7693;49.266;7.104;2023-02-23T14:12:38;12.00;99.90
15184;DHT22;7693;49.266;7.104;2023-02-23T14:18:03;12.10;99.90
15184;DHT22;7693;49.266;7.104;2023-02-23T14:20:43;12.10;99.90
15184;DHT22;7693;49.266;7.104;2023-02-23T14:39:22;12.00;99.90
15184;DHT22;7693;49.266;7.104;2023-02-23T14:41:57;12.00;99.90
15184;DHT22;7693;49.266;7.104;2023-02-23T14:47:05;12.10;99.90
15184;DHT22;7693;49.266;7.104;2023-02-23T14:49:34;12.00;99.90
15184;DHT22;7693;49.266;7.104;2023-02-23T14:52:13;12.00;99.90
15184;DHT22;7693;49.266;7.104;2023-02-23T14:54:43;12.00;99.90
15184;DHT22;7693;49.266;7.104;2023-02-23T14:57:23;11.90;99.90
15184;DHT22;7693;49.266;7.104;2023-02-23T15:00:00;11.90;99.90
15184;DHT22;7693;49.266;7.104;2023-02-23T15:02:28;11.90;99.90
15184;DHT22;7693;49.266;7.104;2023-02-23T15:04:54;11.80;99.90
15184;DHT22;7693;49.266;7.104;2023-02-23T15:07:35;11.80;99.90
15184;DHT22;7693;49.266;7.104;2023-02-23T15:10:05;11.90;99.90
15184;DHT22;7693;49.266;7.104;2023-02-23T15:12:36;11.80;99.90
15184;DHT22;7693;49.266;7.104;2023-02-23T15:15:06;11.80;99.90
15184;DHT22;7693;49.266;7.104;2023-02-23T15:17:37;11.80;99.90
15184;DHT22;7693;49.266;7.104;2023-02-23T15:20:06;11.80;99.90
15184;DHT22;7693;49.266;7.104;2023-02-23T15:22:36;11.80;99.90
15184;DHT22;7693;49.266;7.104;2023-02-23T15:25:19;11.80;99.90
15184;DHT22;7693;49.266;7.104;2023-02-23T15:27:46;11.90;99.90
15184;DHT22;7693;49.266;7.104;2023-02-23T15:32:44;11.90;99.90
15184;DHT22;7693;49.266;7.104;2023-02-23T15:35:11;12.10;99.90
15184;DHT22;7693;49.266;7.104;2023-02-23T15:37:38;12.20;99.90
15184;DHT22;7693;49.266;7.104;2023-02-23T15:40:08;12.20;99.90
15184;DHT22;7693;49.266;7.104;2023-02-23T15:42:42;12.10;99.90
15184;DHT22;7693;49.266;7.104;2023-02-23T15:45:35;12.10;99.90
15184;DHT22;7693;49.266;7.104;2023-02-23T15:48:04;12.20;99.90
15184;DHT22;7693;49.266;7.104;2023-02-23T15:50:34;12.10;99.90
15184;DHT22;7693;49.266;7.104;2023-02-23T15:53:07;12.20;99.90
15184;DHT22;7693;49.266;7.104;2023-02-23T15:55:39;12.10;99.90
15184;DHT22;7693;49.266;7.104;2023-02-23T15:58:23;12.10;99.90
15184;DHT22;7693;49.266;7.104;2023-02-23T16:00:54;12.10;99.90
15184;DHT22;7693;49.266;7.104;2023-02-23T16:03:24;12.00;99.90
15184;DHT22;7693;49.266;7.104;2023-02-23T16:06:20;12.00;99.90
15184;DHT22;7693;49.266;7.104;2023-02-23T16:09:13;12.00;99.90
15184;DHT22;7693;49.266;7.104;2023-02-23T16:14:27;11.90;99.90
15184;DHT22;7693;49.266;7.104;2023-02-23T16:16:57;11.90;99.90
15184;DHT22;7693;49.266;7.104;2023-02-23T16:19:25;11.90;99.90
15184;DHT22;7693;49.266;7.104;2023-02-23T16:21:54;11.90;99.90
15184;DHT22;7693;49.266;7.104;2023-02-23T16:24:24;11.80;99.90
15184;DHT22;7693;49.266;7.104;2023-02-23T16:27:00;11.80;99.90
15184;DHT22;7693;49.266;7.104;2023-02-23T16:29:37;11.80;99.90
15184;DHT22;7693;49.266;7.104;2023-02-23T16:32:17;11.70;99.90
15184;DHT22;7693;49.266;7.104;2023-02-23T16:34:54;11.70;99.90
15184;DHT22;7693;49.266;7.104;2023-02-23T16:37:22;11.70;99.90
15184;DHT22;7693;49.266;7.104;2023-02-23T16:39:49;11.60;99.90
15184;DHT22;7693;49.266;7.104;2023-02-23T16:42:31;11.60;99.90
15184;DHT22;7693;49.266;7.104;2023-02-23T16:44:57;11.50;99.90
15184;DHT22;7693;49.266;7.104;2023-02-23T16:47:34;11.50;99.90
15184;DHT22;7693;49.266;7.104;2023-02-23T16:50:07;11.50;99.90
15184;DHT22;7693;49.266;7.104;2023-02-23T16:52:37;11.50;99.90
15184;DHT22;7693;49.266;7.104;2023-02-23T16:55:02;11.40;99.90
15184;DHT22;7693;49.266;7.104;2023-02-23T16:57:39;11.40;99.90
15184;DHT22;7693;49.266;7.104;2023-02-23T17:00:06;11.40;99.90
15184;DHT22;7693;49.266;7.104;2023-02-23T17:02:39;11.30;99.90
15184;DHT22;7693;49.266;7.104;2023-02-23T17:05:13;11.30;99.90
15184;DHT22;7693;49.266;7.104;2023-02-23T17:07:40;11.20;99.90
15184;DHT22;7693;49.266;7.104;2023-02-23T17:10:07;11.10;99.90
15184;DHT22;7693;49.266;7.104;2023-02-23T17:12:33;11.10;99.90
15184;DHT22;7693;49.266;7.104;2023-02-23T17:14:59;11.00;99.90
15184;DHT22;7693;49.266;7.104;2023-02-23T17:17:24;11.00;99.90
15184;DHT22;7693;49.266;7.104;2023-02-23T17:19:50;10.90;99.90
15184;DHT22;7693;49.266;7.104;2023-02-23T17:22:16;10.90;99.90
15184;DHT22;7693;49.266;7.104;2023-02-23T17:24:42;10.80;99.90
15184;DHT22;7693;49.266;7.104;2023-02-23T17:27:08;10.80;99.90
15184;DHT22;7693;49.266;7.104;2023-02-23T17:29:33;10.70;99.90
15184;DHT22;7693;49.266;7.104;2023-02-23T17:32:00;10.60;99.90
15184;DHT22;7693;49.266;7.104;2023-02-23T17:34:27;10.60;99.90
15184;DHT22;7693;49.266;7.104;2023-02-23T17:36:53;10.50;99.90
15184;DHT22;7693;49.266;7.104;2023-02-23T17:39:18;10.50;99.90
15184;DHT22;7693;49.266;7.104;2023-02-23T17:41:44;10.40;99.90
15184;DHT22;7693;49.266;7.104;2023-02-23T17:44:10;10.30;99.90
15184;DHT22;7693;49.266;7.104;2023-02-23T17:46:36;10.30;99.90
15184;DHT22;7693;49.266;7.104;2023-02-23T17:49:01;10.30;99.90
15184;DHT22;7693;49.266;7.104;2023-02-23T17:51:27;10.20;99.90
15184;DHT22;7693;49.266;7.104;2023-02-23T17:53:53;10.20;99.90
15184;DHT22;7693;49.266;7.104;2023-02-23T17:56:18;10.20;99.90
15184;DHT22;7693;49.266;7.104;2023-02-23T17:58:46;10.10;99.90
15184;DHT22;7693;49.266;7.104;2023-02-23T18:01:11;10.10;99.90
15184;DHT22;7693;49.266;7.104;2023-02-23T18:03:37;10.10;99.90
15184;DHT22;7693;49.266;7.104;2023-02-23T18:06:04;10.00;99.90
15184;DHT22;7693;49.266;7.104;2023-02-23T18:08:30;10.00;99.90
15184;DHT22;7693;49.266;7.104;2023-02-23T18:10:56;10.00;99.90
15184;DHT22;7693;49.266;7.104;2023-02-23T18:13:22;10.00;99.90
15184;DHT22;7693;49.266;7.104;2023-02-23T18:15:53;10.00;99.90
15184;DHT22;7693;49.266;7.104;2023-02-23T18:18:21;10.00;99.90
15184;DHT22;7693;49.266;7.104;2023-02-23T18:20:50;10.00;99.90
15184;DHT22;7693;49.266;7.104;2023-02-23T18:23:16;10.00;99.90
15184;DHT22;7693;49.266;7.104;2023-02-23T18:25:42;10.00;99.90
15184;DHT22;7693;49.266;7.104;2023-02-23T18:28:08;10.00;99.90
15184;DHT22;7693;49.266;7.104;2023-02-23T18:30:37;10.00;99.90
15184;DHT22;7693;49.266;7.104;2023-02-23T18:33:04;10.00;99.90
15184;DHT22;7693;49.266;7.104;2023-02-23T18:35:35;10.00;99.90
15184;DHT22;7693;49.266;7.104;2023-02-23T18:38:06;10.00;99.90
15184;DHT22;7693;49.266;7.104;2023-02-23T18:40:33;10.00;99.90
15184;DHT22;7693;49.266;7.104;2023-02-23T18:42:59;10.00;99.90
15184;DHT22;7693;49.266;7.104;2023-02-23T18:45:25;10.00;99.90
15184;DHT22;7693;49.266;7.104;2023-02-23T18:47:51;10.00;99.90
15184;DHT22;7693;49.266;7.104;2023-02-23T18:50:18;10.00;99.90
15184;DHT22;7693;49.266;7.104;2023-02-23T18:52:46;10.00;99.90
15184;DHT22;7693;49.266;7.104;2023-02-23T18:55:13;10.00;99.90
15184;DHT22;7693;49.266;7.104;2023-02-23T18:57:39;10.00;99.90
15184;DHT22;7693;49.266;7.104;2023-02-23T19:00:06;10.00;99.90
15184;DHT22;7693;49.266;7.104;2023-02-23T19:02:35;10.00;99.90
15184;DHT22;7693;49.266;7.104;2023-02-23T19:05:00;9.90;99.90
15184;DHT22;7693;49.266;7.104;2023-02-23T19:07:28;9.90;99.90
15184;DHT22;7693;49.266;7.104;2023-02-23T19:09:55;9.90;99.90
15184;DHT22;7693;49.266;7.104;2023-02-23T19:12:27;9.90;99.90
15184;DHT22;7693;49.266;7.104;2023-02-23T19:14:53;9.90;99.90
15184;DHT22;7693;49.266;7.104;2023-02-23T19:17:18;9.90;99.90
15184;DHT22;7693;49.266;7.104;2023-02-23T19:19:44;9.90;99.90
15184;DHT22;7693;49.266;7.104;2023-02-23T19:22:09;9.90;99.90
15184;DHT22;7693;49.266;7.104;2023-02-23T19:24:35;9.90;99.90
15184;DHT22;7693;49.266;7.104;2023-02-23T19:27:01;9.90;99.90
15184;DHT22;7693;49.266;7.104;2023-02-23T19:29:26;9.90;99.90
15184;DHT22;7693;49.266;7.104;2023-02-23T19:31:52;9.90;99.90
15184;DHT22;7693;49.266;7.104;2023-02-23T19:34:18;9.90;99.90
15184;DHT22;7693;49.266;7.104;2023-02-23T19:36:43;9.80;99.90
15184;DHT22;7693;49.266;7.104;2023-02-23T19:39:11;9.90;99.90
15184;DHT22;7693;49.266;7.104;2023-02-23T19:41:40;9.90;99.90
15184;DHT22;7693;49.266;7.104;2023-02-23T19:44:06;9.90;99.90
15184;DHT22;7693;49.266;7.104;2023-02-23T19:46:32;9.90;99.90
15184;DHT22;7693;49.266;7.104;2023-02-23T19:48:59;9.90;99.90
15184;DHT22;7693;49.266;7.104;2023-02-23T19:51:25;9.90;99.90
15184;DHT22;7693;49.266;7.104;2023-02-23T19:53:55;9.90;99.90
15184;DHT22;7693;49.266;7.104;2023-02-23T19:56:22;9.90;99.90
15184;DHT22;7693;49.266;7.104;2023-02-23T19:58:52;9.80;99.90
15184;DHT22;7693;49.266;7.104;2023-02-23T20:01:20;9.80;99.90
15184;DHT22;7693;49.266;7.104;2023-02-23T20:03:48;9.80;99.90
15184;DHT22;7693;49.266;7.104;2023-02-23T20:06:21;9.80;99.90
15184;DHT22;7693;49.266;7.104;2023-02-23T20:08:47;9.80;99.90
15184;DHT22;7693;49.266;7.104;2023-02-23T20:11:13;9.80;99.90
15184;DHT22;7693;49.266;7.104;2023-02-23T20:13:40;9.80;99.90
15184;DHT22;7693;49.266;7.104;2023-02-23T20:16:15;9.80;99.90
15184;DHT22;7693;49.266;7.104;2023-02-23T20:18:41;9.80;99.90
15184;DHT22;7693;49.266;7.104;2023-02-23T20:21:07;9.80;99.90
15184;DHT22;7693;49.266;7.104;2023-02-23T20:23:33;9.70;99.90
15184;DHT22;7693;49.266;7.104;2023-02-23T20:26:03;9.70;99.90
15184;DHT22;7693;49.266;7.104;2023-02-23T20:28:29;9.70;99.90
15184;DHT22;7693;49.266;7.104;2023-02-23T20:30:55;9.70;99.90
15184;DHT22;7693;49.266;7.104;2023-02-23T20:33:20;9.70;99.90
15184;DHT22;7693;49.266;7.104;2023-02-23T20:35:46;9.70;99.90
15184;DHT22;7693;49.266;7.104;2023-02-23T20:38:11;9.70;99.90
15184;DHT22;7693;49.266;7.104;2023-02-23T20:40:38;9.70;99.90
15184;DHT22;7693;49.266;7.104;2023-02-23T20:43:04;9.70;99.90
15184;DHT22;7693;49.266;7.104;2023-02-23T20:45:30;9.70;99.90
15184;DHT22;7693;49.266;7.104;2023-02-23T20:47:55;9.70;99.90
15184;DHT22;7693;49.266;7.104;2023-02-23T20:50:22;9.70;99.90
15184;DHT22;7693;49.266;7.104;2023-02-23T20:52:50;9.60;99.90
15184;DHT22;7693;49.266;7.104;2023-02-23T20:55:16;9.60;99.90
15184;DHT22;7693;49.266;7.104;2023-02-23T20:57:46;9.60;99.90
15184;DHT22;7693;49.266;7.104;2023-02-23T21:00:13;9.60;99.90
15184;DHT22;7693;49.266;7.104;2023-02-23T21:02:44;9.60;99.90
15184;DHT22;7693;49.266;7.104;2023-02-23T21:05:10;9.60;99.90
15184;DHT22;7693;49.266;7.104;2023-02-23T21:07:39;9.50;99.90
15184;DHT22;7693;49.266;7.104;2023-02-23T21:10:05;9.50;99.90
15184;DHT22;7693;49.266;7.104;2023-02-23T21:12:33;9.50;99.90
15184;DHT22;7693;49.266;7.104;2023-02-23T21:14:59;9.50;99.90
15184;DHT22;7693;49.266;7.104;2023-02-23T21:17:26;9.50;99.90
15184;DHT22;7693;49.266;7.104;2023-02-23T21:19:52;9.60;99.90
15184;DHT22;7693;49.266;7.104;2023-02-23T21:22:17;9.60;99.90
15184;DHT22;7693;49.266;7.104;2023-02-23T21:24:43;9.60;99.90
15184;DHT22;7693;49.266;7.104;2023-02-23T21:27:10;9.60;99.90
15184;DHT22;7693;49.266;7.104;2023-02-23T21:29:41;9.60;99.90
15184;DHT22;7693;49.266;7.104;2023-02-23T21:32:09;9.60;99.90
15184;DHT22;7693;49.266;7.104;2023-02-23T21:34:41;9.60;99.90
15184;DHT22;7693;49.266;7.104;2023-02-23T21:37:07;9.60;99.90
15184;DHT22;7693;49.266;7.104;2023-02-23T21:39:33;9.60;99.90
15184;DHT22;7693;49.266;7.104;2023-02-23T21:41:58;9.60;99.90
15184;DHT22;7693;49.266;7.104;2023-02-23T21:44:24;9.60;99.90
15184;DHT22;7693;49.266;7.104;2023-02-23T21:46:50;9.60;99.90
15184;DHT22;7693;49.266;7.104;2023-02-23T21:49:16;9.60;99.90
15184;DHT22;7693;49.266;7.104;2023-02-23T21:51:42;9.60;99.90
15184;DHT22;7693;49.266;7.104;2023-02-23T21:54:08;9.60;99.90
15184;DHT22;7693;49.266;7.104;2023-02-23T21:56:34;9.60;99.90
15184;DHT22;7693;49.266;7.104;2023-02-23T21:59:02;9.60;99.90
15184;DHT22;7693;49.266;7.104;2023-02-23T22:01:30;9.60;99.90
15184;DHT22;7693;49.266;7.104;2023-02-23T22:03:56;9.60;99.90
15184;DHT22;7693;49.266;7.104;2023-02-23T22:06:27;9.60;99.90
15184;DHT22;7693;49.266;7.104;2023-02-23T22:08:53;9.60;99.90
15184;DHT22;7693;49.266;7.104;2023-02-23T22:11:22;9.60;99.90
15184;DHT22;7693;49.266;7.104;2023-02-23T22:13:52;9.60;99.90
15184;DHT22;7693;49.266;7.104;2023-02-23T22:16:19;9.60;99.90
15184;DHT22;7693;49.266;7.104;2023-02-23T22:18:45;9.60;99.90
15184;DHT22;7693;49.266;7.104;2023-02-23T22:21:11;9.60;99.90
15184;DHT22;7693;49.266;7.104;2023-02-23T22:23:38;9.60;99.90
15184;DHT22;7693;49.266;7.104;2023-02-23T22:26:04;9.60;99.90
15184;DHT22;7693;49.266;7.104;2023-02-23T22:28:31;9.60;99.90
15184;DHT22;7693;49.266;7.104;2023-02-23T22:31:01;9.60;99.90
15184;DHT22;7693;49.266;7.104;2023-02-23T22:33:31;9.60;99.90
15184;DHT22;7693;49.266;7.104;2023-02-23T22:36:00;9.60;99.90
15184;DHT22;7693;49.266;7.104;2023-02-23T22:38:26;9.60;99.90
15184;DHT22;7693;49.266;7.104;2023-02-23T22:40:51;9.60;99.90
15184;DHT22;7693;49.266;7.104;2023-02-23T22:43:18;9.70;99.90
15184;DHT22;7693;49.266;7.104;2023-02-23T22:45:47;9.70;99.90
15184;DHT22;7693;49.266;7.104;2023-02-23T22:48:17;9.70;99.90
15184;DHT22;7693;49.266;7.104;2023-02-23T22:50:42;9.70;99.90
